Tuesday, October 16, 2018, 7:59 PM EDT
Back to Local

KSEG, Selinsgrove Penn Valley Airport

Location: Selinsgrove, PA, United States Lat: 40.817
Local Time: 7:59 PM EDT (23:59 GMT) Lon: -76.867
Time Zone: US/Eastern Elev: 449 ft

Show me the last for .
Show Decoded

2018-10-16 18:53 METAR KSEG 162253Z AUTO 20003KT 10SM CLR 09/03 A3008 RMK AO2 SLP187 T00940028 =
2018-10-16 17:53 METAR KSEG 162153Z AUTO 21003KT 10SM CLR 11/03 A3008 RMK AO2 SLP186 T01110028 =
2018-10-16 16:53 METAR KSEG 162053Z AUTO 18006KT 10SM CLR 12/03 A3008 RMK AO2 SLP187 T01220028
                 56017 =
2018-10-16 15:53 METAR KSEG 161953Z AUTO VRB04KT 10SM CLR 12/03 A3009 RMK AO2 SLP190 T01220028 =
2018-10-16 14:53 METAR KSEG 161853Z AUTO VRB05KT 10SM CLR 12/03 A3011 RMK AO2 SLP198 T01220028 =
2018-10-16 13:53 METAR KSEG 161753Z AUTO VRB03KT 10SM CLR 12/01 A3013 RMK AO2 SLP203 T01170011
                 10122 20044 58029 =
2018-10-16 12:53 METAR KSEG 161653Z AUTO VRB05KT 10SM CLR 11/00 A3017 RMK AO2 SLP217 T01110000 =
2018-10-16 11:53 METAR KSEG 161553Z AUTO 31007G19KT 10SM CLR 11/00 A3020 RMK AO2 SLP227 T01110000
                 =
2018-10-16 10:53 METAR KSEG 161453Z AUTO 30007KT 260V320 10SM CLR 10/01 A3021 RMK AO2 SLP232
                 T01000006 58005 =
2018-10-16 09:53 METAR KSEG 161353Z AUTO 31003KT 10SM CLR 09/01 A3024 RMK AO2 SLP242 T00890006 =
2018-10-16 08:53 METAR KSEG 161253Z AUTO 30003KT 10SM CLR 07/02 A3024 RMK AO2 SLP242 T00670017 =
2018-10-16 07:53 METAR KSEG 161153Z AUTO 00000KT 10SM CLR 04/02 A3023 RMK AO2 SLP238 70010
                 T00440022 10106 20039 53018 =
2018-10-16 06:53 METAR KSEG 161053Z AUTO 00000KT 10SM CLR 04/01 A3021 RMK AO2 SLP230 T00390011 =
2018-10-16 05:53 METAR KSEG 160953Z AUTO 00000KT 10SM CLR 07/00 A3020 RMK AO2 SLP226 T00670000 =
2018-10-16 04:53 METAR KSEG 160853Z AUTO 30005KT 10SM CLR 07/02 A3018 RMK AO2 SLP219 T00720017
                 53020 =
2018-10-16 03:53 METAR KSEG 160753Z AUTO 31007KT 10SM CLR 09/02 A3015 RMK AO2 SLP208 T00890017 =
2018-10-16 02:53 METAR KSEG 160653Z AUTO 30007KT 10SM BKN041 10/05 A3013 RMK AO2 SLP202 T01000050
                 =
2018-10-16 01:53 METAR KSEG 160553Z AUTO 00000KT 10SM BKN047 11/04 A3012 RMK AO2 SLP198 60000
                 T01110044 10167 20111 51027 =
2018-10-16 00:53 METAR KSEG 160453Z AUTO 29006G14KT 10SM CLR 12/04 A3011 RMK AO2 SLP195 T01170039
                 401720100 =
2018-10-15 23:53 METAR KSEG 160353Z AUTO 30014G25KT 10SM SCT036 SCT050 BKN095 13/05 A3008 RMK AO2
                 RAB21E31 SLP186 P0000 T01280050 =
2018-10-15 22:53 METAR KSEG 160253Z AUTO VRB06G18KT 10SM FEW029 BKN050 OVC080 14/08 A3003 RMK AO2
                 SLP170 T01390083 53034 =
2018-10-15 21:53 METAR KSEG 160153Z AUTO 28006KT 10SM FEW032 OVC055 15/10 A3000 RMK AO2 SLP157
                 T01500100 =
2018-10-15 20:53 METAR KSEG 160053Z AUTO 29011G19KT 10SM FEW028 BKN036 OVC055 16/11 A2996 RMK AO2
                 SLP146 T01560111 =

Support USWX by starting your Amazon purchase here.